Gretna, Virginia
Current Conditions -  °F | °C
As of 12:15 AM on Tuesday 21 Oct 2014 (Local Time) from K0V4 Reporting Station
Broken Clouds Broken Clouds  
Wind Chill: 13°   Ceiling: 11000
Heat Index: 13°   Visibility: 10mi
Dew Point: 11°   Wind: 0mph
Humidity: 85%   Direction: NA
Pressure: 29.95"   Gusts: NA
Location:  36.95°N, 79.36°W
Report Text: K0V4 210415Z AUTO 00000KT 10SM SCT090 BKN110 13/11 A2995 RMK AO1 T01340110
Loading
Personal Weather Stations






























Interactive Weather Map
Tropical Storm Tracking
New forecast layout! Learn more

10-Day Weather Forecast

Advertisements
Track Severe Weather on mobile